createdAt,value
2022-11-03T00:00:45.353Z,1000.35
2022-11-03T00:18:26.005Z,1000.38
2022-11-03T00:23:26.111Z,1000.36
2022-11-03T00:28:26.079Z,1000.31
2022-11-03T00:33:25.880Z,1000.26
2022-11-03T00:38:25.820Z,1000.22
2022-11-03T00:43:25.728Z,1000.19
2022-11-03T00:48:25.778Z,1000.24
2022-11-03T00:53:25.713Z,1000.18
2022-11-03T00:58:25.655Z,1000.18
2022-11-03T01:03:25.793Z,1000.23
2022-11-03T01:08:27.661Z,1000.14
2022-11-03T01:13:25.726Z,1000.11
2022-11-03T01:18:25.493Z,1000.07
2022-11-03T01:23:25.381Z,1000.06
2022-11-03T01:28:25.377Z,1000.02
2022-11-03T01:33:25.166Z,999.99
2022-11-03T01:38:26.313Z,999.86
2022-11-03T01:43:25.063Z,999.86
2022-11-03T01:48:25.037Z,999.66
2022-11-03T01:53:24.965Z,999.61
2022-11-03T01:58:26.947Z,999.61
2022-11-03T02:03:24.941Z,999.50
2022-11-03T02:08:24.851Z,999.36
2022-11-03T02:13:24.733Z,999.29
2022-11-03T02:18:25.801Z,999.24
2022-11-03T02:23:25.658Z,999.13
2022-11-03T02:28:24.702Z,999.12
2022-11-03T02:33:24.733Z,999.01
2022-11-03T02:38:25.565Z,998.87
2022-11-03T02:43:24.615Z,998.80
2022-11-03T02:48:24.442Z,998.77
2022-11-03T02:53:24.482Z,998.68
2022-11-03T02:58:24.207Z,998.58
2022-11-03T03:03:24.347Z,998.54
2022-11-03T03:08:25.208Z,998.46
2022-11-03T03:13:25.085Z,998.39
2022-11-03T03:18:24.171Z,998.34
2022-11-03T03:23:24.194Z,998.30
2022-11-03T03:28:23.935Z,998.30
2022-11-03T03:33:24.089Z,998.21
2022-11-03T03:38:23.886Z,998.18
2022-11-03T03:43:23.774Z,998.08
2022-11-03T03:48:23.736Z,998.04
2022-11-03T03:53:23.631Z,998.04
2022-11-03T03:58:23.607Z,997.98
2022-11-03T04:03:23.562Z,997.84
2022-11-03T04:08:23.682Z,997.84
2022-11-03T04:13:23.572Z,997.74
2022-11-03T04:18:23.521Z,997.72
2022-11-03T04:23:24.498Z,997.67
2022-11-03T04:28:23.253Z,997.64
2022-11-03T04:33:23.370Z,997.57
2022-11-03T04:38:23.176Z,997.52
2022-11-03T04:43:23.046Z,997.44
2022-11-03T04:48:22.981Z,997.39
2022-11-03T04:53:22.999Z,997.50
2022-11-03T04:58:22.989Z,997.33
2022-11-03T05:03:22.848Z,997.32
2022-11-03T05:08:22.896Z,997.32
2022-11-03T05:13:23.933Z,997.28
2022-11-03T05:18:22.810Z,997.23
2022-11-03T05:23:22.761Z,997.10
2022-11-03T05:28:22.661Z,996.99
2022-11-03T05:33:22.650Z,996.95
2022-11-03T05:38:22.517Z,996.82
2022-11-03T05:43:23.454Z,996.78
2022-11-03T05:48:22.443Z,996.77
2022-11-03T05:53:22.312Z,996.66
2022-11-03T05:58:22.228Z,996.66
2022-11-03T06:03:22.186Z,996.61
2022-11-03T06:08:22.183Z,996.54
2022-11-03T06:13:22.240Z,996.53
2022-11-03T06:18:22.257Z,996.45
2022-11-03T06:24:57.115Z,996.42
2022-11-03T06:29:57.049Z,996.35
2022-11-03T06:34:57.054Z,996.36
2022-11-03T06:39:57.019Z,996.27
2022-11-03T06:44:56.977Z,996.17
2022-11-03T06:49:56.833Z,996.12
2022-11-03T06:54:56.752Z,996.04
2022-11-03T07:00:13.267Z,995.95
2022-11-03T07:04:57.656Z,996.09
2022-11-03T07:09:56.726Z,996.01
2022-11-03T07:14:56.608Z,995.87
2022-11-03T07:19:56.600Z,995.82
2022-11-03T07:24:56.455Z,995.75
2022-11-03T07:29:56.537Z,995.78
2022-11-03T07:34:56.380Z,995.77
2022-11-03T07:39:56.317Z,995.77
2022-11-03T07:44:56.370Z,995.65
2022-11-03T07:49:57.214Z,995.44
2022-11-03T07:54:56.263Z,995.42
2022-11-03T07:59:56.178Z,995.32
2022-11-03T08:04:56.135Z,995.25
2022-11-03T08:09:55.991Z,995.14
2022-11-03T08:14:56.044Z,995.13
2022-11-03T08:19:55.956Z,995.04
2022-11-03T08:24:56.853Z,994.98
2022-11-03T08:29:56.748Z,994.94
2022-11-03T08:34:55.814Z,994.95
2022-11-03T08:39:55.821Z,994.79
2022-11-03T08:44:55.809Z,994.70
2022-11-03T08:49:55.641Z,994.64
2022-11-03T08:59:56.802Z,994.58
2022-11-03T09:04:56.516Z,994.58
2022-11-03T09:14:56.271Z,994.24
2022-11-03T09:19:56.292Z,994.12
2022-11-03T09:24:55.197Z,994.06
2022-11-03T09:30:12.339Z,993.89
2022-11-03T09:34:56.057Z,993.83
2022-11-03T09:39:55.009Z,993.66
2022-11-03T09:44:55.031Z,993.44
2022-11-03T09:49:56.046Z,993.36
2022-11-03T09:54:54.840Z,993.27
2022-11-03T09:59:54.854Z,993.20
2022-11-03T10:04:54.979Z,993.16
2022-11-03T10:09:54.659Z,993.14
2022-11-03T10:14:54.639Z,992.98
2022-11-03T10:19:55.613Z,992.82
2022-11-03T10:24:55.582Z,992.57
2022-11-03T10:29:58.013Z,992.50
2022-11-03T10:34:54.367Z,992.39
2022-11-03T10:39:54.325Z,992.27
2022-11-03T10:44:54.242Z,992.29
2022-11-03T10:49:54.183Z,992.21
2022-11-03T10:54:54.219Z,992.13
2022-11-03T10:59:54.085Z,991.87
2022-11-03T11:04:54.129Z,991.54
2022-11-03T11:09:54.018Z,991.48
2022-11-03T11:14:53.963Z,991.54
2022-11-03T11:19:53.909Z,991.41
2022-11-03T11:24:54.859Z,991.17
2022-11-03T11:29:53.804Z,991.08
2022-11-03T11:34:53.695Z,991.02
2022-11-03T11:39:53.668Z,991.09
2022-11-03T11:44:53.653Z,991.03
2022-11-03T11:49:53.554Z,991.07
2022-11-03T11:54:54.322Z,990.95
2022-11-03T11:59:53.517Z,990.88
2022-11-03T12:04:53.490Z,990.81
2022-11-03T12:09:53.354Z,990.57
2022-11-03T12:14:53.352Z,990.37
2022-11-03T12:19:53.305Z,990.31
2022-11-03T12:25:02.021Z,990.13
2022-11-03T12:29:53.088Z,990.03
2022-11-03T12:34:53.060Z,989.84
2022-11-03T12:39:53.000Z,989.79
2022-11-03T12:44:53.954Z,989.55
2022-11-03T12:49:54.903Z,989.40
2022-11-03T12:54:52.850Z,989.28
2022-11-03T12:59:52.859Z,989.29
2022-11-03T13:04:52.746Z,989.29
2022-11-03T13:09:52.691Z,989.13
2022-11-03T13:14:52.680Z,988.92
2022-11-03T13:19:54.723Z,988.82
2022-11-03T13:24:53.536Z,988.71
2022-11-03T13:29:52.432Z,988.68
2022-11-03T13:34:52.411Z,988.55
2022-11-03T13:39:52.343Z,988.37
2022-11-03T13:44:52.325Z,988.26
2022-11-03T13:50:13.169Z,988.14
2022-11-03T13:59:53.156Z,987.96
2022-11-03T14:04:52.116Z,987.87
2022-11-03T14:09:52.067Z,987.75
2022-11-03T14:14:51.987Z,987.47
2022-11-03T14:19:52.842Z,987.45
2022-11-03T14:24:51.866Z,987.44
2022-11-03T14:29:51.819Z,987.54
2022-11-03T14:34:51.782Z,987.29
2022-11-03T14:39:51.742Z,987.27
2022-11-03T14:49:51.683Z,987.20
2022-11-03T14:54:51.615Z,987.12
2022-11-03T14:59:53.745Z,987.15
2022-11-03T15:04:51.419Z,987.35
2022-11-03T15:09:51.378Z,987.28
2022-11-03T15:14:51.324Z,987.20
2022-11-03T15:19:54.716Z,987.12
2022-11-03T15:29:52.136Z,987.14
2022-11-03T15:34:51.134Z,987.10
2022-11-03T15:39:52.664Z,987.08
2022-11-03T15:44:51.018Z,986.96
2022-11-03T15:49:50.934Z,986.79
2022-11-03T15:54:50.863Z,986.76
2022-11-03T15:59:53.849Z,986.61
2022-11-03T16:04:51.762Z,986.52
2022-11-03T16:09:50.692Z,986.47
2022-11-03T16:14:50.681Z,986.23
2022-11-03T16:19:50.592Z,986.14
2022-11-03T16:24:50.591Z,986.13
2022-11-03T16:29:50.511Z,985.99
2022-11-03T16:34:50.447Z,985.92
2022-11-03T16:39:51.399Z,985.98
2022-11-03T16:44:50.335Z,985.94
2022-11-03T16:49:52.935Z,985.86
2022-11-03T16:54:50.384Z,985.81
2022-11-03T16:59:50.203Z,985.84
2022-11-03T17:04:50.441Z,985.82
2022-11-03T17:09:50.069Z,985.68
2022-11-03T17:14:52.560Z,985.62
2022-11-03T17:19:50.995Z,985.52
2022-11-03T17:24:50.954Z,985.46
2022-11-03T17:29:49.916Z,985.28
2022-11-03T17:34:49.783Z,985.21
2022-11-03T17:39:49.800Z,985.08
2022-11-03T17:44:49.716Z,985.02
2022-11-03T17:49:49.647Z,984.98
2022-11-03T17:54:49.610Z,984.91
2022-11-03T17:59:49.496Z,984.88
2022-11-03T18:04:49.447Z,984.90
2022-11-03T18:09:49.382Z,984.85
2022-11-03T18:14:49.337Z,984.77
2022-11-03T18:19:49.289Z,984.74
2022-11-03T18:24:49.311Z,984.72
2022-11-03T18:29:49.636Z,984.71
2022-11-03T18:34:49.199Z,984.75
2022-11-03T18:39:49.105Z,984.62
2022-11-03T18:44:50.076Z,984.65
2022-11-03T18:49:48.979Z,984.60
2022-11-03T18:54:48.893Z,984.56
2022-11-03T18:59:57.712Z,984.58
2022-11-03T19:04:48.867Z,984.56
2022-11-03T19:09:48.747Z,984.47
2022-11-03T19:14:48.775Z,984.40
2022-11-03T19:19:48.681Z,984.38
2022-11-03T19:24:48.632Z,984.34
2022-11-03T19:29:48.582Z,984.33
2022-11-03T19:34:48.506Z,984.23
2022-11-03T19:39:48.475Z,984.15
2022-11-03T19:44:48.395Z,984.12
2022-11-03T19:49:48.339Z,984.05
2022-11-03T19:54:48.245Z,984.00
2022-11-03T19:59:48.218Z,983.92
2022-11-03T20:04:48.180Z,983.92
2022-11-03T20:09:48.113Z,983.94
2022-11-03T20:14:48.058Z,983.88
2022-11-03T20:19:47.951Z,983.86
2022-11-03T20:24:47.954Z,983.84
2022-11-03T20:29:47.860Z,983.86
2022-11-03T20:34:47.824Z,983.82
2022-11-03T20:39:47.764Z,983.66
2022-11-03T20:44:47.777Z,983.70
2022-11-03T20:49:47.726Z,983.72
2022-11-03T20:54:47.596Z,983.67
2022-11-03T20:59:47.573Z,983.78
2022-11-03T21:04:47.531Z,983.87
2022-11-03T21:09:47.445Z,983.82
2022-11-03T21:14:47.374Z,983.94
2022-11-03T21:19:47.338Z,984.01
2022-11-03T21:24:47.295Z,984.02
2022-11-03T21:29:58.953Z,983.92
2022-11-03T21:34:48.153Z,983.99
2022-11-03T21:39:47.076Z,984.05
2022-11-03T21:44:47.041Z,984.03
2022-11-03T21:49:47.102Z,983.97
2022-11-03T21:54:46.946Z,984.05
2022-11-03T21:59:46.906Z,984.03
2022-11-03T22:04:46.839Z,984.03
2022-11-03T22:09:46.765Z,984.06
2022-11-03T22:14:46.782Z,984.12
2022-11-03T22:19:46.656Z,984.13
2022-11-03T22:24:46.661Z,984.04
2022-11-03T22:29:46.610Z,984.08
2022-11-03T22:34:46.532Z,984.18
2022-11-03T22:39:46.466Z,984.27
2022-11-03T22:44:46.367Z,984.34
2022-11-03T22:49:46.373Z,984.43
2022-11-03T22:54:46.267Z,984.41
2022-11-03T22:59:46.237Z,984.39
2022-11-03T23:04:46.202Z,984.64
2022-11-03T23:09:46.258Z,984.66
2022-11-03T23:14:46.214Z,984.77
2022-11-03T23:19:46.098Z,984.97
2022-11-03T23:24:46.060Z,985.05
2022-11-03T23:29:46.029Z,985.09
2022-11-03T23:34:45.905Z,985.27
2022-11-03T23:39:45.840Z,985.38
2022-11-03T23:44:45.753Z,985.61
2022-11-03T23:49:45.709Z,985.65
2022-11-03T23:54:45.688Z,985.60
